Time;durP1;ratioP1;P1;durP2;ratioP2;P2;SDS_P1;SDS_P2;PMS_P1;PMS_P2;Temp;Humidity;BMP_temperature;BMP_pressure;BME280_temperature;BME280_humidity;BME280_pressure;Samples;Min_cycle;Max_cycle;Signal;HPM_P1;HPM_P2
2023/06/24 00:02:11;;;;;;;7.45;4.70;;;;;;;;;;10491981;28;20036;-60
2023/06/24 00:07:12;;;;;;;11.93;5.18;;;;;;;;;;10493412;28;20028;-60
2023/06/24 00:12:18;;;;;;;8.73;4.50;;;;;;;;;;10492760;28;20017;-60
2023/06/24 00:17:19;;;;;;;8.27;4.70;;;;;;;;;;10492119;28;20068;-60
2023/06/24 00:22:22;;;;;;;7.68;4.60;;;;;;;;;;10492782;28;20107;-60
2023/06/24 00:27:22;;;;;;;7.78;4.20;;;;;;;;;;10492692;28;20099;-60
2023/06/24 00:32:23;;;;;;;7.40;4.50;;;;;;;;;;10492977;28;20040;-60
2023/06/24 00:37:23;;;;;;;8.30;4.40;;;;;;;;;;10492079;28;20016;-60
2023/06/24 00:42:24;;;;;;;9.02;4.35;;;;;;;;;;10489360;28;20020;-60
2023/06/24 00:47:25;;;;;;;6.18;4.05;;;;;;;;;;10490026;28;20021;-60
2023/06/24 00:52:26;;;;;;;7.65;4.43;;;;;;;;;;10489775;28;20119;-60
2023/06/24 00:57:28;;;;;;;5.97;4.25;;;;;;;;;;10491145;28;20036;-58
2023/06/24 01:02:32;;;;;;;10.45;4.40;;;;;;;;;;10489021;28;20032;-57
2023/06/24 01:07:35;;;;;;;8.75;4.45;;;;;;;;;;10492155;28;20039;-58
2023/06/24 01:12:39;;;;;;;8.65;4.03;;;;;;;;;;10489745;28;20075;-58
2023/06/24 01:18:18;;;;;;;6.90;3.97;;;;;;;;;;10477764;28;20301;-58
2023/06/24 01:23:52;;;;;;;10.73;5.07;;;;;;;;;;10483090;28;20493;-58
2023/06/24 01:29:54;;;;;;;4.80;4.00;;;;;;;;;;10490959;28;20021;-58
2023/06/24 01:35:12;;;;;;;9.07;4.53;;;;;;;;;;10469348;28;20489;-57
2023/06/24 01:40:28;;;;;;;7.05;4.10;;;;;;;;;;10488486;28;20016;-58
2023/06/24 01:45:36;;;;;;;7.47;3.78;;;;;;;;;;10495028;28;20025;-59
2023/06/24 01:50:39;;;;;;;7.95;3.83;;;;;;;;;;10490097;28;20036;-57
2023/06/24 01:55:42;;;;;;;7.15;3.70;;;;;;;;;;10491162;28;20068;-58
2023/06/24 02:00:43;;;;;;;8.48;3.45;;;;;;;;;;10489281;28;20035;-58
2023/06/24 02:05:44;;;;;;;4.85;3.83;;;;;;;;;;10489807;28;20024;-57
2023/06/24 02:10:46;;;;;;;7.22;4.05;;;;;;;;;;10490131;28;20106;-59
2023/06/24 02:15:48;;;;;;;7.05;3.97;;;;;;;;;;10493686;28;20157;-58
2023/06/24 02:20:50;;;;;;;5.80;3.75;;;;;;;;;;10483453;28;20029;-58
2023/06/24 02:25:51;;;;;;;7.15;3.85;;;;;;;;;;10479773;28;20499;-58
2023/06/24 02:30:54;;;;;;;6.15;3.85;;;;;;;;;;10483226;28;20052;-58
2023/06/24 02:35:54;;;;;;;5.53;4.00;;;;;;;;;;10459609;28;20083;-58
2023/06/24 02:40:56;;;;;;;5.43;3.55;;;;;;;;;;10457414;28;20114;-58
2023/06/24 02:45:58;;;;;;;7.90;3.60;;;;;;;;;;10461626;28;20025;-58
2023/06/24 02:51:00;;;;;;;7.57;4.30;;;;;;;;;;10479569;28;20039;-58
2023/06/24 02:56:03;;;;;;;5.03;3.30;;;;;;;;;;10476188;28;20432;-58
2023/06/24 03:01:08;;;;;;;7.75;3.95;;;;;;;;;;10480722;28;20053;-57
2023/06/24 03:06:12;;;;;;;6.75;3.50;;;;;;;;;;10478396;28;20053;-58
2023/06/24 03:11:14;;;;;;;4.88;3.47;;;;;;;;;;10474583;28;20028;-58
2023/06/24 03:16:14;;;;;;;7.65;3.47;;;;;;;;;;10457123;28;20036;-57
2023/06/24 03:21:15;;;;;;;5.35;3.47;;;;;;;;;;10459073;28;20021;-57
2023/06/24 03:26:16;;;;;;;7.82;3.75;;;;;;;;;;10469640;28;20040;-58
2023/06/24 03:31:16;;;;;;;6.28;3.75;;;;;;;;;;10483755;28;20053;-58
2023/06/24 03:36:17;;;;;;;6.93;3.63;;;;;;;;;;10457341;28;20047;-59
2023/06/24 03:41:18;;;;;;;7.35;3.50;;;;;;;;;;10484942;28;20024;-59
2023/06/24 03:46:18;;;;;;;6.95;3.75;;;;;;;;;;10494340;28;20103;-60
2023/06/24 03:51:19;;;;;;;5.82;3.42;;;;;;;;;;10493873;28;20032;-60
2023/06/24 03:56:19;;;;;;;7.75;3.88;;;;;;;;;;10493705;28;20040;-60
2023/06/24 04:01:20;;;;;;;5.40;3.42;;;;;;;;;;10494729;28;20530;-59
2023/06/24 04:06:20;;;;;;;9.15;4.05;;;;;;;;;;10494020;28;20471;-60
2023/06/24 04:11:21;;;;;;;7.15;3.47;;;;;;;;;;10493448;28;20431;-58
2023/06/24 04:16:22;;;;;;;6.45;3.58;;;;;;;;;;10494573;28;20059;-59
2023/06/24 04:21:23;;;;;;;9.77;3.90;;;;;;;;;;10493926;28;20058;-59
2023/06/24 04:26:23;;;;;;;6.00;3.60;;;;;;;;;;10494278;28;20032;-59
2023/06/24 04:31:25;;;;;;;4.18;3.17;;;;;;;;;;10487275;28;20045;-60
2023/06/24 04:36:26;;;;;;;5.93;3.10;;;;;;;;;;10491802;28;20036;-59
2023/06/24 04:41:26;;;;;;;8.48;3.63;;;;;;;;;;10490511;28;20483;-59
2023/06/24 04:46:27;;;;;;;6.15;3.40;;;;;;;;;;10492374;28;20365;-58
2023/06/24 04:51:27;;;;;;;6.80;3.53;;;;;;;;;;10491459;28;20408;-60
2023/06/24 04:56:28;;;;;;;7.30;4.03;;;;;;;;;;10491607;28;20909;-60
2023/06/24 05:01:28;;;;;;;6.15;4.03;;;;;;;;;;10490630;28;20404;-60
2023/06/24 05:06:29;;;;;;;7.68;3.60;;;;;;;;;;10492775;28;20017;-60
2023/06/24 05:11:30;;;;;;;7.00;3.60;;;;;;;;;;10490875;28;20029;-60
2023/06/24 05:16:30;;;;;;;4.53;3.28;;;;;;;;;;10492014;28;20108;-59
2023/06/24 05:21:31;;;;;;;3.88;3.17;;;;;;;;;;10491316;28;20020;-59
2023/06/24 05:26:31;;;;;;;5.88;3.63;;;;;;;;;;10490784;28;20029;-59
2023/06/24 05:31:32;;;;;;;4.72;3.20;;;;;;;;;;10477468;28;20448;-58
2023/06/24 05:36:32;;;;;;;6.20;4.13;;;;;;;;;;10474250;28;20353;-58
2023/06/24 05:41:34;;;;;;;4.70;3.08;;;;;;;;;;10453413;28;20028;-58
2023/06/24 05:46:36;;;;;;;7.38;3.38;;;;;;;;;;10465994;28;20040;-60
2023/06/24 05:51:37;;;;;;;6.28;3.78;;;;;;;;;;10495415;28;20028;-60
2023/06/24 05:56:38;;;;;;;4.43;3.55;;;;;;;;;;10496407;28;20631;-60
2023/06/24 06:01:38;;;;;;;4.45;3.55;;;;;;;;;;10496345;28;20143;-60
2023/06/24 06:06:40;;;;;;;6.03;3.90;;;;;;;;;;10496168;28;20055;-60
2023/06/24 06:11:41;;;;;;;7.18;4.10;;;;;;;;;;10496588;28;20033;-59
2023/06/24 06:16:42;;;;;;;6.80;4.03;;;;;;;;;;10496638;28;20040;-59
2023/06/24 06:21:42;;;;;;;7.15;4.47;;;;;;;;;;10496562;28;20029;-58
2023/06/24 06:26:44;;;;;;;5.10;3.92;;;;;;;;;;10496219;28;20024;-59
2023/06/24 06:31:45;;;;;;;5.78;4.20;;;;;;;;;;10479096;28;20493;-58
2023/06/24 06:36:45;;;;;;;10.35;4.55;;;;;;;;;;10478436;28;20032;-59
2023/06/24 06:41:46;;;;;;;6.63;4.20;;;;;;;;;;10485880;28;20464;-59
2023/06/24 06:46:46;;;;;;;8.98;4.45;;;;;;;;;;10472323;28;20566;-59
2023/06/24 06:51:47;;;;;;;11.25;4.32;;;;;;;;;;10491141;28;20481;-58
2023/06/24 06:56:47;;;;;;;8.02;3.95;;;;;;;;;;10472678;28;20028;-58
2023/06/24 07:01:48;;;;;;;8.07;3.78;;;;;;;;;;10458042;28;20024;-61
2023/06/24 07:06:49;;;;;;;6.60;4.35;;;;;;;;;;10473286;28;20458;-60
2023/06/24 07:11:49;;;;;;;6.05;4.00;;;;;;;;;;10482710;28;20032;-60
2023/06/24 07:16:50;;;;;;;4.78;3.95;;;;;;;;;;10459588;28;20025;-60
2023/06/24 07:21:52;;;;;;;6.68;3.90;;;;;;;;;;10470275;28;20404;-60
2023/06/24 07:26:52;;;;;;;5.65;3.63;;;;;;;;;;10469697;28;20060;-59
2023/06/24 07:31:53;;;;;;;6.95;3.80;;;;;;;;;;10478280;28;20055;-60
2023/06/24 07:36:53;;;;;;;7.50;3.20;;;;;;;;;;10482605;28;20025;-60
2023/06/24 07:41:54;;;;;;;4.45;3.17;;;;;;;;;;10495206;28;20263;-60
2023/06/24 07:46:55;;;;;;;7.80;3.10;;;;;;;;;;10495742;28;20036;-60
2023/06/24 07:51:55;;;;;;;4.90;3.35;;;;;;;;;;10486505;28;20039;-60
2023/06/24 07:56:56;;;;;;;4.60;3.28;;;;;;;;;;10493175;28;20029;-61
2023/06/24 08:01:56;;;;;;;5.50;3.35;;;;;;;;;;10491987;28;20021;-60
2023/06/24 08:06:57;;;;;;;6.38;3.42;;;;;;;;;;10492071;28;20082;-60
2023/06/24 08:11:57;;;;;;;5.15;3.08;;;;;;;;;;10491270;28;20027;-60
2023/06/24 08:16:58;;;;;;;5.38;3.30;;;;;;;;;;10491344;28;20028;-60
2023/06/24 08:21:58;;;;;;;3.38;3.00;;;;;;;;;;10491003;28;20027;-60
2023/06/24 08:26:59;;;;;;;5.10;3.10;;;;;;;;;;10491143;28;20040;-60
2023/06/24 08:32:00;;;;;;;3.95;3.40;;;;;;;;;;10469527;28;20051;-60
2023/06/24 08:37:00;;;;;;;5.28;3.88;;;;;;;;;;10459017;28;20031;-60
2023/06/24 08:42:02;;;;;;;4.35;3.20;;;;;;;;;;10475504;28;20396;-60
2023/06/24 08:47:03;;;;;;;4.07;3.33;;;;;;;;;;10482573;28;20532;-60
2023/06/24 08:52:11;;;;;;;4.43;3.22;;;;;;;;;;10490983;28;20028;-60
2023/06/24 08:57:14;;;;;;;3.55;2.67;;;;;;;;;;10478686;28;20032;-60
2023/06/24 09:02:15;;;;;;;3.33;3.03;;;;;;;;;;10476590;28;20027;-60
2023/06/24 09:07:26;;;;;;;3.67;3.38;;;;;;;;;;10486736;28;20037;-58
2023/06/24 09:12:27;;;;;;;6.18;3.22;;;;;;;;;;10473483;28;20130;-57
2023/06/24 09:17:28;;;;;;;5.65;3.00;;;;;;;;;;10481595;28;20388;-58
2023/06/24 09:22:30;;;;;;;3.63;2.80;;;;;;;;;;10490586;28;20101;-59
2023/06/24 09:27:32;;;;;;;4.57;3.25;;;;;;;;;;10497282;28;20012;-58
2023/06/24 09:32:34;;;;;;;6.05;2.83;;;;;;;;;;10487630;28;20437;-61
2023/06/24 09:37:34;;;;;;;5.03;3.50;;;;;;;;;;10461693;28;20485;-60
2023/06/24 09:42:35;;;;;;;3.08;2.78;;;;;;;;;;10478347;28;20032;-60
2023/06/24 09:47:36;;;;;;;5.07;3.10;;;;;;;;;;10496896;28;20094;-60
2023/06/24 09:52:37;;;;;;;3.85;3.05;;;;;;;;;;10488316;28;20370;-59
2023/06/24 09:57:39;;;;;;;5.68;2.75;;;;;;;;;;10471627;28;20023;-60
2023/06/24 10:02:40;;;;;;;5.20;3.20;;;;;;;;;;10495459;28;20471;-60
2023/06/24 10:07:42;;;;;;;4.20;2.95;;;;;;;;;;10496758;28;20366;-60
2023/06/24 10:12:43;;;;;;;8.73;2.97;;;;;;;;;;10496150;28;20538;-60
2023/06/24 10:17:45;;;;;;;7.75;3.28;;;;;;;;;;10496153;28;20183;-60
2023/06/24 10:22:46;;;;;;;3.95;2.88;;;;;;;;;;10495715;28;20485;-60
2023/06/24 10:27:53;;;;;;;4.97;3.25;;;;;;;;;;10495858;28;20046;-60
2023/06/24 10:32:54;;;;;;;6.65;3.03;;;;;;;;;;10468928;28;20043;-60
2023/06/24 10:37:57;;;;;;;3.17;2.88;;;;;;;;;;10473801;28;20032;-59
2023/06/24 10:43:00;;;;;;;5.85;3.30;;;;;;;;;;10473920;28;20085;-59
2023/06/24 10:48:01;;;;;;;4.57;3.03;;;;;;;;;;10469711;28;20025;-59
2023/06/24 10:53:08;;;;;;;5.43;3.53;;;;;;;;;;10474158;28;20041;-59
2023/06/24 10:58:14;;;;;;;8.43;3.50;;;;;;;;;;10466355;28;20028;-59
2023/06/24 11:03:16;;;;;;;8.57;3.15;;;;;;;;;;10460673;28;20053;-60
2023/06/24 11:08:17;;;;;;;6.05;3.33;;;;;;;;;;10464537;28;20037;-60
2023/06/24 11:13:20;;;;;;;4.78;3.47;;;;;;;;;;10461698;28;20443;-60
2023/06/24 11:18:21;;;;;;;4.30;3.20;;;;;;;;;;10460140;28;20488;-60
2023/06/24 11:23:21;;;;;;;3.83;3.20;;;;;;;;;;10458585;28;20091;-60
2023/06/24 11:28:22;;;;;;;5.97;3.10;;;;;;;;;;10463627;28;20029;-60
2023/06/24 11:33:28;;;;;;;3.30;3.00;;;;;;;;;;10479753;28;20102;-60
2023/06/24 11:38:31;;;;;;;4.18;3.50;;;;;;;;;;10493008;28;20157;-60
2023/06/24 11:43:33;;;;;;;6.25;3.25;;;;;;;;;;10492597;28;20480;-60
2023/06/24 11:48:40;;;;;;;3.97;3.28;;;;;;;;;;10491460;28;20028;-60
2023/06/24 11:53:47;;;;;;;4.88;3.50;;;;;;;;;;10491692;28;20075;-60
2023/06/24 11:58:51;;;;;;;7.57;3.03;;;;;;;;;;10492043;28;20020;-60
2023/06/24 12:03:53;;;;;;;9.43;3.75;;;;;;;;;;10491724;28;20121;-59
2023/06/24 12:08:53;;;;;;;4.32;3.10;;;;;;;;;;10491875;28;20571;-60
2023/06/24 12:13:54;;;;;;;7.45;2.90;;;;;;;;;;10492220;28;20032;-60
2023/06/24 12:18:54;;;;;;;4.07;3.35;;;;;;;;;;10490606;28;20024;-60
2023/06/24 12:23:55;;;;;;;4.63;2.75;;;;;;;;;;10491226;28;20027;-60
2023/06/24 12:28:56;;;;;;;3.13;2.80;;;;;;;;;;10485692;28;20027;-60
2023/06/24 12:33:57;;;;;;;2.85;2.58;;;;;;;;;;10469494;28;20052;-60
2023/06/24 12:38:57;;;;;;;3.28;2.78;;;;;;;;;;10468176;28;20024;-58
2023/06/24 12:43:58;;;;;;;3.80;2.58;;;;;;;;;;10469520;28;20040;-57
2023/06/24 12:48:59;;;;;;;4.95;3.67;;;;;;;;;;10487546;28;20032;-58
2023/06/24 12:54:00;;;;;;;7.70;3.22;;;;;;;;;;10476199;28;20036;-58
2023/06/24 12:59:00;;;;;;;6.32;3.10;;;;;;;;;;10464137;28;20028;-58
2023/06/24 13:04:01;;;;;;;5.60;3.28;;;;;;;;;;10479272;28;20381;-59
2023/06/24 13:09:02;;;;;;;4.47;3.45;;;;;;;;;;10459920;28;20419;-58
2023/06/24 13:14:03;;;;;;;3.80;2.88;;;;;;;;;;10458161;28;20485;-58
2023/06/24 13:19:04;;;;;;;9.15;3.10;;;;;;;;;;10466616;28;20077;-58
2023/06/24 13:24:05;;;;;;;7.35;2.88;;;;;;;;;;10458694;28;20020;-58
2023/06/24 13:29:07;;;;;;;4.07;3.10;;;;;;;;;;10466052;28;20537;-58
2023/06/24 13:34:08;;;;;;;3.78;2.85;;;;;;;;;;10482879;28;20531;-59
2023/06/24 13:39:12;;;;;;;3.97;3.30;;;;;;;;;;10487515;28;20112;-59
2023/06/24 13:44:14;;;;;;;3.72;2.97;;;;;;;;;;10488748;28;20115;-59
2023/06/24 13:49:14;;;;;;;5.88;2.70;;;;;;;;;;10484200;28;20070;-59
2023/06/24 13:54:16;;;;;;;6.20;3.00;;;;;;;;;;10488353;28;20159;-58
2023/06/24 13:59:17;;;;;;;3.63;2.78;;;;;;;;;;10488658;28;20119;-59
2023/06/24 14:04:18;;;;;;;5.05;2.90;;;;;;;;;;10488522;28;20087;-59
2023/06/24 14:09:18;;;;;;;10.10;3.25;;;;;;;;;;10490675;28;20062;-59
2023/06/24 14:14:19;;;;;;;2.88;2.50;;;;;;;;;;10496252;28;20040;-59
2023/06/24 14:19:20;;;;;;;4.32;2.78;;;;;;;;;;10497159;28;20028;-58
2023/06/24 14:24:20;;;;;;;5.28;2.70;;;;;;;;;;10497878;28;20081;-58
2023/06/24 14:29:21;;;;;;;5.05;2.90;;;;;;;;;;10498142;28;20028;-59
2023/06/24 14:34:22;;;;;;;6.00;3.03;;;;;;;;;;10461236;28;20476;-59
2023/06/24 14:39:22;;;;;;;3.08;2.78;;;;;;;;;;10460848;28;20519;-60
2023/06/24 14:44:23;;;;;;;6.30;2.80;;;;;;;;;;10459762;28;20032;-60
2023/06/24 14:49:23;;;;;;;2.85;2.50;;;;;;;;;;10482295;28;20463;-60
2023/06/24 14:54:24;;;;;;;4.50;2.70;;;;;;;;;;10494669;28;20525;-60
2023/06/24 14:59:24;;;;;;;3.05;2.45;;;;;;;;;;10494447;28;20024;-59
2023/06/24 15:04:25;;;;;;;3.65;2.30;;;;;;;;;;10493867;28;20027;-60
2023/06/24 15:09:26;;;;;;;5.82;2.78;;;;;;;;;;10493849;28;20039;-60
2023/06/24 15:14:26;;;;;;;3.00;2.08;;;;;;;;;;10494095;28;20020;-60
2023/06/24 15:19:27;;;;;;;5.55;2.70;;;;;;;;;;10493208;28;20055;-59
2023/06/24 15:24:27;;;;;;;2.92;2.63;;;;;;;;;;10493220;28;20025;-59
2023/06/24 15:29:28;;;;;;;2.88;2.60;;;;;;;;;;10495715;28;20020;-58
2023/06/24 15:34:28;;;;;;;3.25;2.50;;;;;;;;;;10469663;28;20499;-60
2023/06/24 15:39:29;;;;;;;4.20;2.50;;;;;;;;;;10457878;28;20032;-59
2023/06/24 15:44:30;;;;;;;2.95;2.50;;;;;;;;;;10469849;28;20033;-60
2023/06/24 15:49:31;;;;;;;2.50;2.30;;;;;;;;;;10456705;28;20036;-59
2023/06/24 15:54:31;;;;;;;2.88;2.28;;;;;;;;;;10480076;28;20025;-61
2023/06/24 15:59:32;;;;;;;2.97;2.30;;;;;;;;;;10480834;28;20029;-60
2023/06/24 16:04:33;;;;;;;4.95;2.35;;;;;;;;;;10481298;28;20025;-61
2023/06/24 16:09:34;;;;;;;2.30;2.10;;;;;;;;;;10470929;28;20377;-61
2023/06/24 16:14:34;;;;;;;3.13;2.25;;;;;;;;;;10483112;28;20028;-61
2023/06/24 16:19:35;;;;;;;2.80;2.05;;;;;;;;;;10474843;28;20409;-61
2023/06/24 16:24:35;;;;;;;2.70;1.95;;;;;;;;;;10476526;28;20450;-61
2023/06/24 16:29:36;;;;;;;5.25;2.22;;;;;;;;;;10491897;28;20029;-59
2023/06/24 16:34:37;;;;;;;2.30;1.95;;;;;;;;;;10469587;28;20037;-58
2023/06/24 16:39:38;;;;;;;5.35;1.98;;;;;;;;;;10472760;28;20039;-59
2023/06/24 16:44:38;;;;;;;2.53;1.83;;;;;;;;;;10468183;28;20040;-60
2023/06/24 16:49:39;;;;;;;2.30;2.10;;;;;;;;;;10477726;28;20025;-61
2023/06/24 16:54:39;;;;;;;3.40;1.85;;;;;;;;;;10463798;28;20457;-61
2023/06/24 16:59:40;;;;;;;3.33;2.08;;;;;;;;;;10478508;28;20701;-61
2023/06/24 17:04:40;;;;;;;2.03;1.88;;;;;;;;;;10465597;28;20036;-61
2023/06/24 17:09:41;;;;;;;4.25;1.80;;;;;;;;;;10485370;28;20025;-60
2023/06/24 17:14:42;;;;;;;4.70;2.08;;;;;;;;;;10488363;28;20078;-59
2023/06/24 17:19:42;;;;;;;6.68;2.40;;;;;;;;;;10481414;28;20017;-58
2023/06/24 17:24:43;;;;;;;6.38;2.35;;;;;;;;;;10481583;28;20025;-59
2023/06/24 17:29:44;;;;;;;13.25;2.47;;;;;;;;;;10494425;28;20032;-61
2023/06/24 17:34:44;;;;;;;6.72;2.38;;;;;;;;;;10468965;28;20077;-60
2023/06/24 17:39:45;;;;;;;5.68;2.33;;;;;;;;;;10454206;28;20436;-58
2023/06/24 17:44:46;;;;;;;12.25;2.78;;;;;;;;;;10472076;28;20036;-60
2023/06/24 17:49:47;;;;;;;10.60;2.85;;;;;;;;;;10497408;28;20027;-61
2023/06/24 17:54:47;;;;;;;12.95;2.90;;;;;;;;;;10494754;28;20043;-61
2023/06/24 17:59:48;;;;;;;7.85;2.85;;;;;;;;;;10496155;28;20020;-61
2023/06/24 18:04:48;;;;;;;5.55;2.70;;;;;;;;;;10493935;28;20016;-61
2023/06/24 18:09:49;;;;;;;11.13;2.78;;;;;;;;;;10496582;28;20017;-61
2023/06/24 18:14:51;;;;;;;11.25;2.40;;;;;;;;;;10496494;28;20036;-61
2023/06/24 18:19:52;;;;;;;4.60;2.33;;;;;;;;;;10496042;28;20387;-61
2023/06/24 18:24:53;;;;;;;7.28;2.40;;;;;;;;;;10496004;28;20035;-61
2023/06/24 18:29:54;;;;;;;7.00;2.33;;;;;;;;;;10490438;28;20484;-60
2023/06/24 18:34:56;;;;;;;6.05;2.45;;;;;;;;;;10472445;28;20032;-61
2023/06/24 18:39:57;;;;;;;9.60;2.42;;;;;;;;;;10460929;28;20155;-61
2023/06/24 18:44:58;;;;;;;4.95;2.38;;;;;;;;;;10460674;28;20028;-61
2023/06/24 18:50:00;;;;;;;8.52;2.53;;;;;;;;;;10485535;28;20021;-61
2023/06/24 18:55:01;;;;;;;4.65;2.53;;;;;;;;;;10471230;28;20029;-60
2023/06/24 19:00:02;;;;;;;3.88;2.50;;;;;;;;;;10473110;28;20020;-61
2023/06/24 19:05:03;;;;;;;6.32;2.38;;;;;;;;;;10469690;28;20039;-61
2023/06/24 19:10:04;;;;;;;6.05;2.20;;;;;;;;;;10458923;28;20104;-60
2023/06/24 19:15:06;;;;;;;6.03;2.30;;;;;;;;;;10458983;28;20044;-60
2023/06/24 19:20:07;;;;;;;6.57;2.42;;;;;;;;;;10458694;28;20021;-60
2023/06/24 19:25:11;;;;;;;8.13;2.10;;;;;;;;;;10468464;28;20106;-58
2023/06/24 19:30:12;;;;;;;7.32;2.60;;;;;;;;;;10478470;28;20090;-60
2023/06/24 19:35:12;;;;;;;8.68;2.33;;;;;;;;;;10457498;28;20044;-61
2023/06/24 19:40:13;;;;;;;9.55;2.33;;;;;;;;;;10477681;28;20024;-61
2023/06/24 19:45:13;;;;;;;3.65;2.20;;;;;;;;;;10463103;28;20499;-60
2023/06/24 19:50:14;;;;;;;3.80;2.03;;;;;;;;;;10460040;28;20105;-60
2023/06/24 19:55:15;;;;;;;5.07;2.42;;;;;;;;;;10468894;28;20020;-60
2023/06/24 20:00:16;;;;;;;3.92;2.00;;;;;;;;;;10465997;28;20384;-59
2023/06/24 20:05:16;;;;;;;3.15;1.80;;;;;;;;;;10456572;28;20040;-61
2023/06/24 20:10:17;;;;;;;3.80;1.95;;;;;;;;;;10457687;28;20063;-61
2023/06/24 20:15:17;;;;;;;2.78;1.52;;;;;;;;;;10469137;28;20031;-61
2023/06/24 20:20:18;;;;;;;6.40;1.88;;;;;;;;;;10478445;28;20025;-60
2023/06/24 20:25:20;;;;;;;3.55;1.88;;;;;;;;;;10468113;28;20082;-60
2023/06/24 20:30:20;;;;;;;2.58;1.70;;;;;;;;;;10475563;28;20064;-60
2023/06/24 20:35:21;;;;;;;4.63;2.50;;;;;;;;;;10462560;28;20049;-60
2023/06/24 20:40:22;;;;;;;4.80;1.80;;;;;;;;;;10466287;28;20614;-60
2023/06/24 20:45:22;;;;;;;5.47;2.00;;;;;;;;;;10466995;28;20087;-60
2023/06/24 20:50:23;;;;;;;2.70;1.83;;;;;;;;;;10473084;28;20070;-58
2023/06/24 20:55:23;;;;;;;7.55;2.10;;;;;;;;;;10462211;28;20033;-59
2023/06/24 21:00:25;;;;;;;2.85;1.75;;;;;;;;;;10460367;28;20036;-60
2023/06/24 21:05:25;;;;;;;4.03;1.65;;;;;;;;;;10465417;28;20536;-59
2023/06/24 21:10:26;;;;;;;3.40;1.70;;;;;;;;;;10465027;28;20129;-60
2023/06/24 21:15:26;;;;;;;2.67;1.80;;;;;;;;;;10478222;28;20051;-60
2023/06/24 21:20:27;;;;;;;5.82;2.15;;;;;;;;;;10488596;28;20043;-60
2023/06/24 21:25:27;;;;;;;1.95;1.70;;;;;;;;;;10489256;28;20033;-60
2023/06/24 21:30:28;;;;;;;5.93;1.60;;;;;;;;;;10478700;28;20029;-60
2023/06/24 21:35:29;;;;;;;3.40;1.73;;;;;;;;;;10460952;28;20068;-60
2023/06/24 21:40:29;;;;;;;2.00;1.60;;;;;;;;;;10478962;28;20397;-60
2023/06/24 21:45:30;;;;;;;4.32;1.67;;;;;;;;;;10467566;28;20436;-60
2023/06/24 21:50:31;;;;;;;3.25;1.42;;;;;;;;;;10457421;28;20028;-61
2023/06/24 21:55:31;;;;;;;5.05;2.47;;;;;;;;;;10453410;28;20048;-60
2023/06/24 22:00:32;;;;;;;7.20;1.80;;;;;;;;;;10460801;28;20033;-60
2023/06/24 22:05:32;;;;;;;5.32;1.40;;;;;;;;;;10458186;28;20044;-60
2023/06/24 22:10:33;;;;;;;5.35;1.50;;;;;;;;;;10458186;28;20016;-61
2023/06/24 22:15:34;;;;;;;4.20;1.55;;;;;;;;;;10456951;28;20460;-60
2023/06/24 22:20:34;;;;;;;5.50;1.90;;;;;;;;;;10457281;28;20430;-61
2023/06/24 22:25:35;;;;;;;6.10;1.40;;;;;;;;;;10454462;28;20058;-60
2023/06/24 22:30:35;;;;;;;5.35;1.75;;;;;;;;;;10475274;28;20044;-60
2023/06/24 22:35:36;;;;;;;4.70;1.25;;;;;;;;;;10495592;28;20057;-60
2023/06/24 22:40:36;;;;;;;5.65;1.52;;;;;;;;;;10495895;28;20024;-61
2023/06/24 22:45:37;;;;;;;6.15;1.45;;;;;;;;;;10495054;28;20028;-60
2023/06/24 22:50:38;;;;;;;4.38;1.58;;;;;;;;;;10495058;28;20032;-61
2023/06/24 22:55:38;;;;;;;5.53;1.70;;;;;;;;;;10494633;28;20288;-60
2023/06/24 23:00:39;;;;;;;3.22;1.45;;;;;;;;;;10493292;28;20036;-60
2023/06/24 23:05:40;;;;;;;6.97;1.73;;;;;;;;;;10494123;28;20033;-60
2023/06/24 23:10:40;;;;;;;1.77;1.02;;;;;;;;;;10494005;28;20384;-60
2023/06/24 23:15:42;;;;;;;3.67;1.30;;;;;;;;;;10493982;28;20193;-60
2023/06/24 23:20:43;;;;;;;5.05;1.35;;;;;;;;;;10494047;28;20044;-60
2023/06/24 23:25:44;;;;;;;6.05;1.33;;;;;;;;;;10493624;28;20484;-60
2023/06/24 23:30:46;;;;;;;2.00;1.27;;;;;;;;;;10486056;28;20024;-61
2023/06/24 23:35:50;;;;;;;3.13;1.20;;;;;;;;;;10470079;28;20531;-60
2023/06/24 23:40:51;;;;;;;3.22;1.75;;;;;;;;;;10469616;28;20390;-60
2023/06/24 23:45:52;;;;;;;2.85;1.00;;;;;;;;;;10455871;28;20031;-61
2023/06/24 23:50:53;;;;;;;4.55;1.13;;;;;;;;;;10478008;28;20020;-60
2023/06/24 23:55:53;;;;;;;5.72;1.15;;;;;;;;;;10471302;28;20091;-59
